Time;durP1;ratioP1;P1;durP2;ratioP2;P2;SDS_P1;SDS_P2;PMS_P1;PMS_P2;Temp;Humidity;BMP_temperature;BMP_pressure;BME280_temperature;BME280_humidity;BME280_pressure;Samples;Min_cycle;Max_cycle;Signal;HPM_P1;HPM_P2
2021/05/15 00:00:32;;;;;;;3.60;3.30;;;11.90;99.90;;;;;;5061866;28;20419;-47
2021/05/15 00:02:59;;;;;;;5.20;3.53;;;11.90;99.90;;;;;;5072906;28;20463;-49
2021/05/15 00:05:25;;;;;;;3.70;3.30;;;11.80;99.90;;;;;;5086148;28;20519;-45
2021/05/15 00:07:51;;;;;;;3.37;3.07;;;11.90;99.90;;;;;;5067319;28;20482;-44
2021/05/15 00:10:17;;;;;;;3.30;3.00;;;11.90;99.90;;;;;;5075616;28;20415;-45
2021/05/15 00:12:43;;;;;;;5.40;3.00;;;11.80;99.90;;;;;;5078255;28;20555;-49
2021/05/15 00:15:11;;;;;;;3.27;3.00;;;11.70;99.90;;;;;;5072561;28;20434;-46
2021/05/15 00:17:38;;;;;;;6.93;3.30;;;11.80;99.90;;;;;;5075663;28;20435;-43
2021/05/15 00:20:10;;;;;;;4.87;3.57;;;11.70;99.90;;;;;;5068971;28;20910;-45
2021/05/15 00:22:36;;;;;;;3.97;3.40;;;11.70;99.90;;;;;;5064121;28;20435;-44
2021/05/15 00:25:03;;;;;;;4.10;3.70;;;11.70;99.90;;;;;;5056031;28;20446;-46
2021/05/15 00:27:28;;;;;;;4.20;3.80;;;11.60;99.90;;;;;;5068861;28;20800;-46
2021/05/15 00:29:54;;;;;;;3.57;3.27;;;11.60;99.90;;;;;;5057293;28;20435;-45
2021/05/15 00:32:20;;;;;;;4.60;3.60;;;11.60;99.90;;;;;;5068489;28;20177;-43
2021/05/15 00:34:45;;;;;;;4.23;3.83;;;11.60;99.90;;;;;;5068687;28;20327;-46
2021/05/15 00:37:11;;;;;;;3.93;3.63;;;11.60;99.90;;;;;;5068656;28;20200;-44
2021/05/15 00:39:36;;;;;;;4.30;3.90;;;11.60;99.90;;;;;;5068509;28;20193;-45
2021/05/15 00:42:03;;;;;;;4.27;3.87;;;11.50;99.90;;;;;;5064425;28;20194;-47
2021/05/15 00:44:42;;;;;;;5.20;4.00;;;11.50;99.90;;;;;;5062810;28;20213;-46
2021/05/15 00:47:08;;;;;;;4.93;4.43;;;11.50;99.90;;;;;;5070852;28;20423;-46
2021/05/15 00:49:33;;;;;;;4.40;3.97;;;11.50;99.90;;;;;;5078157;28;20426;-48
2021/05/15 00:51:59;;;;;;;4.63;4.13;;;11.50;99.90;;;;;;5087450;28;20373;-48
2021/05/15 00:54:25;;;;;;;4.73;4.33;;;11.40;99.90;;;;;;5089093;28;20713;-48
2021/05/15 00:56:51;;;;;;;5.07;4.57;;;11.50;99.90;;;;;;5088993;28;20742;-45
2021/05/15 00:59:17;;;;;;;6.80;4.50;;;11.50;99.90;;;;;;5070891;28;20281;-45
2021/05/15 01:01:42;;;;;;;4.47;4.07;;;11.50;99.90;;;;;;5064552;28;20279;-44
2021/05/15 01:04:08;;;;;;;5.63;5.03;;;11.50;99.90;;;;;;5070677;28;20569;-49
2021/05/15 01:06:37;;;;;;;5.30;4.80;;;11.50;99.90;;;;;;5078660;28;20850;-45
2021/05/15 01:09:04;;;;;;;5.80;5.20;;;11.50;99.90;;;;;;5064196;28;20677;-46
2021/05/15 01:11:30;;;;;;;5.60;5.10;;;11.50;99.90;;;;;;5075449;28;20867;-49
2021/05/15 01:13:59;;;;;;;5.37;4.87;;;11.50;99.90;;;;;;5074296;28;20447;-44
2021/05/15 01:16:26;;;;;;;5.97;5.43;;;11.60;99.90;;;;;;5065779;28;20243;-45
2021/05/15 01:18:52;;;;;;;5.60;5.10;;;11.60;99.90;;;;;;5067551;28;20430;-44
2021/05/15 01:21:18;;;;;;;6.87;4.80;;;11.60;99.90;;;;;;5068111;28;20935;-43
2021/05/15 01:23:44;;;;;;;5.93;5.33;;;11.50;99.90;;;;;;5068229;28;20470;-43
2021/05/15 01:26:22;;;;;;;5.27;4.77;;;11.50;99.90;;;;;;5067071;28;20423;-47
2021/05/15 01:28:50;;;;;;;5.23;4.80;;;11.40;99.90;;;;;;5064969;28;20422;-45
2021/05/15 01:31:16;;;;;;;5.50;5.00;;;11.40;99.90;;;;;;5066945;28;20428;-47
2021/05/15 01:33:42;;;;;;;6.07;5.23;;;11.40;99.90;;;;;;5065191;28;20434;-45
2021/05/15 01:36:08;;;;;;;5.77;5.20;;;11.30;99.90;;;;;;5074873;28;20412;-49
2021/05/15 01:38:35;;;;;;;5.47;4.90;;;11.30;99.90;;;;;;5083535;28;20423;-43
2021/05/15 01:41:06;;;;;;;5.13;4.73;;;11.20;99.90;;;;;;5068931;28;20453;-49
2021/05/15 01:43:32;;;;;;;6.00;5.47;;;11.20;99.90;;;;;;5067634;28;20946;-44
2021/05/15 01:45:58;;;;;;;4.70;4.30;;;11.20;99.90;;;;;;5056184;28;20493;-45
2021/05/15 01:48:24;;;;;;;5.60;5.10;;;11.20;99.90;;;;;;5067894;28;20431;-46
2021/05/15 01:51:11;;;;;;;9.03;5.37;;;11.10;99.90;;;;;;5067582;28;20219;-47
2021/05/15 01:53:40;;;;;;;6.03;5.50;;;11.10;99.90;;;;;;5067981;28;20193;-45
2021/05/15 01:56:08;;;;;;;6.90;5.20;;;11.00;99.90;;;;;;5068040;28;20434;-44
2021/05/15 01:58:34;;;;;;;5.10;4.53;;;11.00;99.90;;;;;;5067786;28;20875;-49
2021/05/15 02:01:00;;;;;;;6.00;5.50;;;11.10;99.90;;;;;;5060804;28;20441;-43
2021/05/15 02:03:26;;;;;;;5.97;5.10;;;11.10;99.90;;;;;;5066275;28;20463;-46
2021/05/15 02:05:53;;;;;;;5.50;5.00;;;11.10;99.90;;;;;;5067995;28;20192;-48
2021/05/15 02:08:21;;;;;;;5.50;5.00;;;11.00;99.90;;;;;;5065676;28;20435;-45
2021/05/15 02:10:48;;;;;;;6.37;4.93;;;11.00;99.90;;;;;;5072911;28;21095;-44
2021/05/15 02:13:14;;;;;;;6.53;5.93;;;11.00;99.90;;;;;;5083320;28;21151;-44
2021/05/15 02:15:40;;;;;;;5.10;4.53;;;11.00;99.90;;;;;;5063509;28;20444;-43
2021/05/15 02:18:07;;;;;;;5.83;5.10;;;11.00;99.90;;;;;;5074834;28;20418;-43
2021/05/15 02:20:34;;;;;;;6.90;4.80;;;10.90;99.90;;;;;;5083202;28;20426;-46
2021/05/15 02:23:00;;;;;;;5.10;4.67;;;11.00;99.90;;;;;;5088276;28;20485;-45
2021/05/15 02:25:26;;;;;;;4.90;4.50;;;11.00;99.90;;;;;;5081811;28;20426;-47
2021/05/15 02:27:53;;;;;;;5.20;4.80;;;11.00;99.90;;;;;;5092114;28;20429;-48
2021/05/15 02:30:20;;;;;;;5.17;4.77;;;10.90;99.90;;;;;;5071220;28;20474;-46
2021/05/15 02:32:47;;;;;;;4.80;4.40;;;11.00;99.90;;;;;;5081719;28;20465;-45
2021/05/15 02:35:13;;;;;;;4.97;4.50;;;11.00;99.90;;;;;;5068170;28;20431;-45
2021/05/15 02:37:39;;;;;;;4.80;4.40;;;11.00;99.90;;;;;;5081066;28;20496;-45
2021/05/15 02:40:08;;;;;;;6.63;4.70;;;11.00;99.90;;;;;;5073606;28;20420;-45
2021/05/15 02:42:34;;;;;;;6.20;5.67;;;10.90;99.90;;;;;;5071248;28;20808;-45
2021/05/15 02:45:00;;;;;;;5.80;5.20;;;10.90;99.90;;;;;;5064268;28;20479;-44
2021/05/15 02:47:25;;;;;;;5.77;5.20;;;10.90;99.90;;;;;;5061025;28;20529;-45
2021/05/15 02:49:51;;;;;;;6.30;5.70;;;10.90;99.90;;;;;;5070100;28;20196;-50
2021/05/15 02:52:17;;;;;;;5.63;5.10;;;10.80;99.90;;;;;;5070753;28;20196;-43
2021/05/15 02:54:42;;;;;;;5.03;4.63;;;10.90;99.90;;;;;;5070383;28;20193;-44
2021/05/15 02:57:09;;;;;;;8.10;5.77;;;11.00;99.90;;;;;;5070769;28;20747;-45
2021/05/15 02:59:35;;;;;;;5.97;5.40;;;10.90;99.90;;;;;;5070560;28;20280;-44
2021/05/15 03:02:02;;;;;;;6.30;5.80;;;10.90;99.90;;;;;;5059180;28;20808;-45
2021/05/15 03:04:28;;;;;;;5.73;5.23;;;10.80;99.90;;;;;;5075995;28;21025;-44
2021/05/15 03:06:54;;;;;;;6.33;5.73;;;10.90;99.90;;;;;;5080327;28;20430;-45
2021/05/15 03:09:19;;;;;;;7.27;5.63;;;10.90;99.90;;;;;;5065235;28;20193;-47
2021/05/15 03:11:45;;;;;;;6.73;6.13;;;10.90;99.90;;;;;;5067323;28;20279;-49
2021/05/15 03:14:10;;;;;;;7.57;6.70;;;10.90;99.90;;;;;;5070695;28;20288;-43
2021/05/15 03:16:36;;;;;;;6.03;5.53;;;11.00;99.90;;;;;;5063141;28;20212;-46
2021/05/15 03:19:03;;;;;;;7.50;5.27;;;11.00;99.90;;;;;;5069979;28;20611;-46
2021/05/15 03:21:29;;;;;;;5.60;5.10;;;11.00;99.90;;;;;;5070247;28;20197;-45
2021/05/15 03:23:54;;;;;;;6.50;5.90;;;11.00;99.90;;;;;;5069704;28;20463;-45
2021/05/15 03:26:20;;;;;;;5.90;5.40;;;11.10;99.90;;;;;;5070464;28;20727;-47
2021/05/15 03:28:46;;;;;;;6.83;6.23;;;11.10;99.90;;;;;;5070026;28;20844;-45
2021/05/15 03:31:12;;;;;;;6.87;5.67;;;11.10;99.90;;;;;;5062191;28;20741;-43
2021/05/15 03:33:38;;;;;;;5.60;5.10;;;11.00;99.90;;;;;;5075426;28;20200;-44
2021/05/15 03:36:04;;;;;;;5.73;5.23;;;11.10;99.90;;;;;;5077113;28;20555;-46
2021/05/15 03:38:31;;;;;;;5.30;4.83;;;11.10;99.90;;;;;;5081815;28;20808;-43
2021/05/15 03:40:56;;;;;;;7.53;5.53;;;11.00;99.90;;;;;;5078720;28;20422;-43
2021/05/15 03:43:22;;;;;;;6.50;5.90;;;11.10;99.90;;;;;;5070109;28;20494;-44
2021/05/15 03:45:50;;;;;;;5.60;5.13;;;11.10;99.90;;;;;;5064742;28;20189;-47
2021/05/15 03:48:20;;;;;;;5.73;5.00;;;11.10;99.90;;;;;;5065615;28;20204;-45
2021/05/15 03:50:55;;;;;;;7.17;5.13;;;11.10;99.90;;;;;;5080435;28;20475;-45
2021/05/15 03:53:21;;;;;;;5.30;4.80;;;11.20;99.90;;;;;;5090060;28;20445;-46
2021/05/15 03:55:47;;;;;;;5.00;4.60;;;11.20;99.90;;;;;;5078021;28;20484;-46
2021/05/15 03:58:15;;;;;;;4.73;4.33;;;11.10;99.90;;;;;;5090023;28;20430;-43
2021/05/15 04:00:41;;;;;;;5.37;4.63;;;11.10;99.90;;;;;;5081177;28;20436;-48
2021/05/15 04:03:07;;;;;;;6.03;5.37;;;11.20;99.90;;;;;;5063121;28;20455;-46
2021/05/15 04:05:33;;;;;;;4.80;4.40;;;11.20;99.90;;;;;;5078982;28;20450;-50
2021/05/15 04:07:59;;;;;;;4.90;4.40;;;11.20;99.90;;;;;;5076758;28;20220;-46
2021/05/15 04:10:25;;;;;;;4.80;4.27;;;11.20;99.90;;;;;;5067608;28;20948;-47
2021/05/15 04:15:39;;;;;;;4.90;4.50;;;11.20;99.90;;;;;;5066211;28;20425;-46
2021/05/15 04:18:10;;;;;;;5.40;4.90;;;11.20;99.90;;;;;;5059274;28;20424;-44
2021/05/15 04:20:41;;;;;;;4.97;4.50;;;11.20;99.90;;;;;;5068743;28;20419;-47
2021/05/15 04:23:07;;;;;;;4.60;4.20;;;11.20;99.90;;;;;;5069390;28;20447;-44
2021/05/15 04:25:34;;;;;;;5.17;4.20;;;11.20;99.90;;;;;;5069320;28;20781;-45
2021/05/15 04:28:01;;;;;;;5.00;4.57;;;11.20;99.90;;;;;;5088008;28;21113;-47
2021/05/15 04:30:27;;;;;;;4.83;4.43;;;11.20;99.90;;;;;;5088885;28;20778;-44
2021/05/15 04:32:53;;;;;;;4.97;4.57;;;11.20;99.90;;;;;;5058317;28;20427;-45
2021/05/15 04:35:19;;;;;;;4.07;3.67;;;11.20;99.90;;;;;;5070555;28;20478;-45
2021/05/15 04:37:45;;;;;;;5.07;4.50;;;11.20;99.90;;;;;;5079230;28;20421;-45
2021/05/15 04:40:12;;;;;;;4.63;4.13;;;11.20;99.90;;;;;;5076634;28;20419;-46
2021/05/15 04:42:38;;;;;;;4.70;4.30;;;11.30;99.90;;;;;;5068868;28;20193;-44
2021/05/15 04:45:09;;;;;;;4.70;4.07;;;11.30;99.90;;;;;;5068788;28;20455;-45
2021/05/15 04:47:35;;;;;;;5.83;3.80;;;11.40;99.90;;;;;;5056044;28;21082;-50
2021/05/15 04:50:01;;;;;;;6.77;4.37;;;11.50;99.90;;;;;;5068253;28;20430;-46
2021/05/15 04:52:27;;;;;;;6.30;4.50;;;11.50;99.90;;;;;;5068679;28;20451;-46
2021/05/15 04:54:53;;;;;;;7.87;5.20;;;11.50;99.90;;;;;;5068925;28;20450;-44
2021/05/15 04:57:19;;;;;;;5.40;4.90;;;11.30;99.90;;;;;;5068377;28;20562;-47
2021/05/15 04:59:44;;;;;;;5.60;5.10;;;11.20;99.90;;;;;;5067735;28;20453;-45
2021/05/15 05:02:10;;;;;;;5.13;4.30;;;11.20;99.90;;;;;;5059930;28;20185;-46
2021/05/15 05:04:36;;;;;;;5.30;4.80;;;11.10;99.90;;;;;;5066569;28;20245;-44
2021/05/15 05:07:02;;;;;;;5.87;5.27;;;11.10;99.90;;;;;;5079409;28;20426;-47
2021/05/15 05:09:28;;;;;;;5.23;4.77;;;11.20;99.90;;;;;;5086925;28;20609;-44
2021/05/15 05:11:54;;;;;;;6.10;4.63;;;11.20;99.90;;;;;;5075387;28;20418;-45
2021/05/15 05:14:19;;;;;;;4.77;3.70;;;11.20;99.90;;;;;;5075368;28;20239;-42
2021/05/15 05:16:45;;;;;;;5.50;4.60;;;11.20;99.90;;;;;;5078760;28;20185;-45
2021/05/15 05:19:12;;;;;;;4.87;4.23;;;11.20;99.90;;;;;;5057698;28;20198;-48
2021/05/15 05:21:41;;;;;;;5.27;4.77;;;11.20;99.90;;;;;;5071137;28;20216;-47
2021/05/15 05:24:08;;;;;;;4.80;4.40;;;11.30;99.90;;;;;;5079824;28;20852;-45
2021/05/15 05:26:38;;;;;;;5.20;4.67;;;11.30;99.90;;;;;;5068824;28;20868;-44
2021/05/15 05:29:09;;;;;;;4.80;4.40;;;11.30;99.90;;;;;;5067564;28;20420;-46
2021/05/15 05:31:40;;;;;;;4.73;3.90;;;11.30;99.90;;;;;;5068328;28;20519;-49
2021/05/15 05:34:07;;;;;;;5.00;4.50;;;11.40;99.90;;;;;;5058339;28;20427;-49
2021/05/15 05:36:33;;;;;;;6.20;4.57;;;11.40;99.90;;;;;;5072155;28;20461;-45
2021/05/15 05:38:59;;;;;;;6.17;5.07;;;11.50;99.90;;;;;;5064203;28;20460;-45
2021/05/15 05:41:25;;;;;;;4.70;4.30;;;11.50;99.90;;;;;;5067712;28;20448;-48
2021/05/15 05:43:52;;;;;;;4.70;4.00;;;11.50;99.90;;;;;;5067931;28;20243;-50
2021/05/15 05:46:18;;;;;;;4.93;4.20;;;11.60;99.90;;;;;;5067726;28;20956;-47
2021/05/15 05:48:44;;;;;;;5.43;5.00;;;11.60;99.90;;;;;;5056895;28;20454;-44
2021/05/15 05:51:10;;;;;;;6.10;4.70;;;11.70;99.90;;;;;;5067625;28;20411;-45
2021/05/15 05:53:36;;;;;;;5.80;5.27;;;11.80;99.90;;;;;;5067928;28;20419;-47
2021/05/15 05:56:02;;;;;;;6.23;5.63;;;11.90;99.90;;;;;;5067457;28;20189;-44
2021/05/15 05:58:28;;;;;;;5.30;4.80;;;12.00;99.90;;;;;;5067808;28;20185;-47
2021/05/15 06:00:54;;;;;;;6.17;5.57;;;12.10;99.90;;;;;;5067050;28;20473;-45
2021/05/15 06:03:20;;;;;;;6.50;5.90;;;12.10;99.90;;;;;;5058318;28;20609;-44
2021/05/15 06:05:45;;;;;;;8.43;5.87;;;12.10;99.90;;;;;;5066995;28;20710;-45
2021/05/15 06:08:11;;;;;;;5.50;5.00;;;12.10;99.90;;;;;;5065114;28;20196;-46
2021/05/15 06:10:38;;;;;;;5.70;5.20;;;12.20;99.90;;;;;;5075090;28;20192;-46
2021/05/15 06:13:05;;;;;;;6.00;5.50;;;12.30;99.90;;;;;;5080081;28;20418;-47
2021/05/15 06:15:31;;;;;;;5.70;5.20;;;12.30;99.90;;;;;;5075815;28;20441;-44
2021/05/15 06:17:57;;;;;;;6.60;6.00;;;12.40;99.90;;;;;;5068423;28;20428;-45
2021/05/15 06:20:23;;;;;;;6.57;5.97;;;12.40;99.90;;;;;;5063031;28;20423;-45
2021/05/15 06:22:49;;;;;;;6.47;5.73;;;12.30;99.90;;;;;;5067350;28;20193;-49
2021/05/15 06:25:15;;;;;;;6.60;6.00;;;12.30;99.90;;;;;;5067422;28;20530;-48
2021/05/15 06:27:41;;;;;;;7.20;6.50;;;12.30;99.90;;;;;;5067409;28;20201;-45
2021/05/15 06:30:07;;;;;;;7.93;7.17;;;12.30;99.90;;;;;;5066973;28;20529;-46
2021/05/15 06:32:33;;;;;;;8.27;7.47;;;12.30;99.90;;;;;;5067138;28;20459;-45
2021/05/15 06:34:58;;;;;;;12.03;8.87;;;12.30;99.90;;;;;;5063678;28;20916;-48
2021/05/15 06:37:24;;;;;;;11.90;10.53;;;12.30;99.90;;;;;;5073075;28;20276;-47
2021/05/15 06:39:50;;;;;;;14.20;12.13;;;12.30;99.90;;;;;;5082720;28;20415;-48
2021/05/15 06:42:16;;;;;;;16.63;14.00;;;12.30;99.90;;;;;;5067388;28;20657;-46
2021/05/15 06:44:41;;;;;;;17.50;14.07;;;12.30;99.90;;;;;;5067555;28;20624;-45
2021/05/15 06:47:07;;;;;;;18.50;14.07;;;12.30;99.90;;;;;;5067455;28;20947;-48
2021/05/15 06:49:33;;;;;;;17.37;14.63;;;12.30;99.90;;;;;;5057762;28;20199;-49
2021/05/15 06:51:58;;;;;;;15.43;13.83;;;12.30;99.90;;;;;;5068103;28;20181;-44
2021/05/15 06:54:24;;;;;;;15.17;13.07;;;12.30;99.90;;;;;;5087164;28;20645;-47
2021/05/15 06:56:50;;;;;;;17.23;15.33;;;12.30;99.90;;;;;;5081764;28;20246;-46
2021/05/15 06:59:17;;;;;;;15.77;14.10;;;12.30;99.90;;;;;;5071030;28;20186;-44
2021/05/15 07:01:44;;;;;;;13.80;12.23;;;12.30;99.90;;;;;;5078838;28;20450;-46
2021/05/15 07:04:09;;;;;;;14.03;12.53;;;12.30;99.90;;;;;;5065192;28;20478;-45
2021/05/15 07:06:35;;;;;;;12.67;11.37;;;12.30;99.90;;;;;;5068451;28;20449;-47
2021/05/15 07:09:01;;;;;;;13.50;11.13;;;12.30;99.90;;;;;;5070823;28;20237;-45
2021/05/15 07:11:26;;;;;;;12.60;10.40;;;12.30;99.90;;;;;;5081897;28;20250;-45
2021/05/15 07:13:52;;;;;;;12.80;11.40;;;12.30;99.90;;;;;;5081018;28;20223;-45
2021/05/15 07:16:18;;;;;;;12.43;11.13;;;12.30;99.90;;;;;;5083908;28;20405;-45
2021/05/15 07:18:43;;;;;;;11.70;10.50;;;12.30;99.90;;;;;;5083652;28;20188;-43
2021/05/15 07:21:09;;;;;;;12.57;11.23;;;12.30;99.90;;;;;;5056175;28;20497;-44
2021/05/15 07:23:35;;;;;;;13.07;11.63;;;12.30;99.90;;;;;;5069163;28;20762;-44
2021/05/15 07:26:00;;;;;;;13.90;11.87;;;12.30;99.90;;;;;;5080623;28;20219;-44
2021/05/15 07:28:26;;;;;;;14.63;12.70;;;12.30;99.90;;;;;;5068395;28;20227;-45
2021/05/15 07:30:52;;;;;;;15.00;11.90;;;12.20;99.90;;;;;;5067865;28;20182;-45
2021/05/15 07:33:18;;;;;;;13.50;11.57;;;12.10;99.90;;;;;;5063417;28;20273;-44
2021/05/15 07:35:43;;;;;;;11.80;10.60;;;12.10;99.90;;;;;;5051909;28;20374;-48
2021/05/15 07:38:09;;;;;;;10.73;9.57;;;12.20;99.90;;;;;;5067138;28;20439;-44
2021/05/15 07:40:35;;;;;;;11.33;8.77;;;12.30;99.90;;;;;;5067629;28;20650;-45
2021/05/15 07:43:04;;;;;;;8.33;7.63;;;12.30;99.90;;;;;;5068452;28;20214;-47
2021/05/15 07:45:30;;;;;;;8.33;7.60;;;12.30;99.90;;;;;;5068553;28;20185;-48
2021/05/15 07:47:56;;;;;;;10.03;9.20;;;12.30;99.90;;;;;;5068143;28;20877;-46
2021/05/15 07:50:23;;;;;;;10.20;9.30;;;12.30;99.90;;;;;;5056828;28;20476;-49
2021/05/15 07:52:48;;;;;;;10.47;9.40;;;12.20;99.90;;;;;;5068050;28;20420;-45
2021/05/15 07:55:14;;;;;;;9.20;8.30;;;12.20;99.90;;;;;;5068155;28;20473;-49
2021/05/15 07:57:40;;;;;;;9.83;8.83;;;12.10;99.90;;;;;;5067856;28;20199;-45
2021/05/15 08:00:07;;;;;;;10.90;9.90;;;12.20;99.90;;;;;;5069478;28;20251;-47
2021/05/15 08:02:34;;;;;;;10.10;9.20;;;12.20;99.90;;;;;;5074587;28;21042;-44
2021/05/15 08:05:00;;;;;;;10.40;9.40;;;12.20;99.90;;;;;;5067287;28;20922;-44
2021/05/15 08:07:26;;;;;;;9.37;8.47;;;12.20;99.90;;;;;;5073230;28;20467;-45
2021/05/15 08:09:51;;;;;;;9.20;8.40;;;12.30;99.90;;;;;;5066379;28;20193;-48
2021/05/15 08:12:17;;;;;;;8.87;8.10;;;12.20;99.90;;;;;;5067890;28;20283;-44
2021/05/15 08:14:43;;;;;;;8.57;7.80;;;12.10;99.90;;;;;;5069417;28;20181;-46
2021/05/15 08:17:09;;;;;;;10.27;9.47;;;12.20;99.90;;;;;;5088284;28;20668;-43
2021/05/15 08:19:35;;;;;;;8.90;8.10;;;12.10;99.90;;;;;;5094657;28;20197;-44
2021/05/15 08:22:00;;;;;;;9.90;8.90;;;12.20;99.90;;;;;;5061560;28;20503;-45
2021/05/15 08:24:26;;;;;;;9.70;8.80;;;12.10;99.90;;;;;;5071143;28;20488;-44
2021/05/15 08:26:52;;;;;;;8.83;8.13;;;12.10;99.90;;;;;;5081521;28;20721;-46
2021/05/15 08:29:21;;;;;;;9.10;8.30;;;12.10;99.90;;;;;;5064961;28;20452;-47
2021/05/15 08:31:46;;;;;;;8.67;7.87;;;12.10;99.90;;;;;;5081005;28;20410;-46
2021/05/15 08:34:12;;;;;;;9.63;8.73;;;12.10;99.90;;;;;;5072654;28;20778;-45
2021/05/15 08:36:38;;;;;;;11.40;10.30;;;12.00;99.90;;;;;;5058947;28;20959;-48
2021/05/15 08:39:05;;;;;;;10.17;9.10;;;12.00;99.90;;;;;;5067604;28;20185;-45
2021/05/15 08:41:31;;;;;;;11.90;10.47;;;12.00;99.90;;;;;;5087483;28;20427;-45
2021/05/15 08:44:02;;;;;;;11.00;9.87;;;12.00;99.90;;;;;;5079720;28;20658;-46
2021/05/15 08:46:29;;;;;;;11.60;10.50;;;12.10;99.90;;;;;;5087756;28;20438;-45
2021/05/15 08:48:58;;;;;;;10.77;9.77;;;12.10;99.90;;;;;;5086730;28;20421;-44
2021/05/15 08:51:24;;;;;;;11.40;10.23;;;12.20;99.90;;;;;;5061213;28;20866;-44
2021/05/15 08:53:50;;;;;;;11.50;10.40;;;12.30;99.90;;;;;;5070287;28;20411;-48
2021/05/15 08:56:17;;;;;;;12.60;11.30;;;12.30;99.90;;;;;;5077688;28;20445;-46
2021/05/15 08:58:44;;;;;;;12.60;11.30;;;12.30;99.90;;;;;;5085298;28;20770;-46
2021/05/15 09:01:13;;;;;;;12.17;10.97;;;12.40;99.90;;;;;;5086721;28;20504;-45
2021/05/15 09:03:40;;;;;;;12.73;10.90;;;12.50;99.90;;;;;;5087348;28;20998;-47
2021/05/15 09:06:06;;;;;;;12.60;11.40;;;12.60;99.90;;;;;;5066889;28;20484;-48
2021/05/15 09:08:32;;;;;;;17.50;12.00;;;12.70;99.90;;;;;;5064509;28;20451;-44
2021/05/15 09:10:58;;;;;;;12.10;10.90;;;12.80;99.90;;;;;;5065640;28;20192;-51
2021/05/15 09:13:29;;;;;;;12.63;11.40;;;12.90;99.90;;;;;;5063190;28;20565;-49
2021/05/15 09:15:57;;;;;;;12.70;11.53;;;13.00;99.90;;;;;;5078031;28;20426;-44
2021/05/15 09:18:32;;;;;;;12.40;11.10;;;13.00;99.90;;;;;;5087129;28;20521;-48
2021/05/15 09:20:59;;;;;;;11.93;10.73;;;13.10;99.90;;;;;;5071775;28;20447;-49
2021/05/15 09:23:39;;;;;;;11.13;10.13;;;13.10;99.90;;;;;;5063406;28;20447;-46
2021/05/15 09:26:10;;;;;;;10.33;9.30;;;13.10;99.90;;;;;;5068148;28;20829;-46
2021/05/15 09:28:45;;;;;;;10.60;9.50;;;13.20;99.90;;;;;;5085299;28;20422;-47
2021/05/15 09:31:20;;;;;;;9.73;8.83;;;13.20;99.90;;;;;;5082375;28;20418;-45
2021/05/15 09:33:55;;;;;;;11.00;9.90;;;13.20;99.90;;;;;;5086481;28;20418;-48
2021/05/15 09:36:22;;;;;;;10.27;9.30;;;13.20;99.90;;;;;;5067793;28;20794;-49
2021/05/15 09:39:08;;;;;;;10.30;9.30;;;13.20;99.90;;;;;;5059211;28;20855;-49
2021/05/15 09:41:55;;;;;;;9.27;8.47;;;13.30;99.90;;;;;;5065844;28;20435;-45
2021/05/15 09:44:27;;;;;;;10.20;9.30;;;13.40;99.90;;;;;;5066168;28;20455;-48
2021/05/15 09:46:54;;;;;;;9.70;8.80;;;13.40;99.90;;;;;;5066196;28;20829;-47
2021/05/15 09:49:25;;;;;;;10.17;9.27;;;13.40;99.90;;;;;;5065542;28;20422;-48
2021/05/15 09:51:52;;;;;;;10.73;9.83;;;13.50;99.90;;;;;;5054298;28;20470;-45
2021/05/15 09:54:23;;;;;;;11.47;10.47;;;13.70;99.90;;;;;;5066128;28;20408;-48
2021/05/15 09:57:03;;;;;;;10.70;9.70;;;13.90;99.90;;;;;;5064536;28;20795;-48
2021/05/15 09:59:34;;;;;;;11.67;10.57;;;14.00;99.90;;;;;;5065788;28;20415;-49
2021/05/15 10:02:03;;;;;;;10.67;9.67;;;14.00;99.90;;;;;;5066219;28;20480;-45
2021/05/15 10:04:29;;;;;;;11.13;10.13;;;14.00;99.90;;;;;;5065847;28;20466;-44
2021/05/15 10:06:56;;;;;;;10.30;9.40;;;14.10;99.90;;;;;;5053855;28;20917;-43
2021/05/15 10:09:36;;;;;;;11.27;10.27;;;14.00;99.90;;;;;;5061434;28;20669;-45
2021/05/15 10:12:04;;;;;;;12.07;10.97;;;14.00;99.90;;;;;;5068340;28;20462;-46
2021/05/15 10:14:30;;;;;;;11.83;10.83;;;13.80;99.90;;;;;;5067883;28;20459;-48
2021/05/15 10:16:57;;;;;;;12.27;11.27;;;13.80;99.90;;;;;;5077824;28;20906;-44
2021/05/15 10:19:24;;;;;;;12.33;11.13;;;13.90;99.90;;;;;;5080783;28;20426;-47
2021/05/15 10:21:50;;;;;;;12.87;11.67;;;13.90;99.90;;;;;;5073968;28;20478;-47
2021/05/15 10:24:21;;;;;;;12.27;11.20;;;13.90;99.90;;;;;;5056486;28;20451;-45
2021/05/15 10:27:03;;;;;;;11.60;10.60;;;14.00;99.90;;;;;;5073347;28;20406;-44
2021/05/15 10:29:49;;;;;;;9.03;8.23;;;14.20;99.90;;;;;;5067848;28;20764;-47
2021/05/15 10:32:14;;;;;;;7.40;6.80;;;14.30;99.90;;;;;;5067372;28;20761;-45
2021/05/15 10:34:44;;;;;;;7.87;7.17;;;14.60;99.90;;;;;;5067972;28;20541;-46
2021/05/15 10:37:17;;;;;;;7.17;6.53;;;14.60;99.90;;;;;;5054709;28;20428;-47
2021/05/15 10:39:44;;;;;;;6.63;6.00;;;14.80;99.90;;;;;;5082814;28;20758;-47
2021/05/15 10:42:10;;;;;;;8.10;7.40;;;15.00;99.90;;;;;;5074946;28;20415;-47
2021/05/15 10:44:39;;;;;;;8.10;7.20;;;15.20;99.90;;;;;;5065926;28;21294;-51
2021/05/15 10:47:05;;;;;;;6.90;6.30;;;15.20;99.90;;;;;;5072016;28;20411;-43
2021/05/15 10:49:31;;;;;;;6.57;5.97;;;15.50;99.90;;;;;;5070463;28;20477;-37
2021/05/15 10:52:27;;;;;;;9.10;6.10;;;15.90;99.90;;;;;;5068470;28;20178;-48
2021/05/15 10:55:03;;;;;;;103.35;16.75;;;16.30;99.90;;;;;;5054129;28;20902;-43
2021/05/15 10:57:31;;;;;;;6.17;5.23;;;16.50;99.90;;;;;;5076394;28;20191;-47
2021/05/15 10:59:59;;;;;;;5.57;5.07;;;16.80;99.90;;;;;;5076383;28;20415;-45
2021/05/15 11:02:32;;;;;;;4.07;3.77;;;16.90;99.90;;;;;;5070920;28;20514;-43
2021/05/15 11:05:02;;;;;;;36.77;8.50;;;16.90;99.90;;;;;;5070903;28;20477;-42
2021/05/15 11:07:35;;;;;;;5.63;4.00;;;16.80;99.90;;;;;;5062583;28;20815;-37
2021/05/15 11:10:04;;;;;;;4.43;3.90;;;16.70;99.90;;;;;;5065882;28;20415;-48
2021/05/15 11:12:38;;;;;;;6.88;3.80;;;16.70;99.90;;;;;;5080531;28;20400;-43
2021/05/15 11:15:06;;;;;;;4.17;3.77;;;16.70;99.90;;;;;;5074927;28;20188;-43
2021/05/15 11:17:32;;;;;;;3.40;3.20;;;16.70;99.90;;;;;;5082578;28;20420;-43
2021/05/15 11:20:15;;;;;;;5.27;3.60;;;16.50;99.90;;;;;;5090384;28;21013;-44
2021/05/15 11:22:45;;;;;;;5.13;3.30;;;16.40;99.90;;;;;;5073263;28;20443;-39
2021/05/15 11:25:14;;;;;;;152.30;19.63;;;16.30;99.90;;;;;;5065607;28;20432;-49
2021/05/15 11:27:56;;;;;;;12.20;3.72;;;16.00;99.90;;;;;;5084169;28;20401;-57
2021/05/15 11:30:25;;;;;;;2.60;2.10;;;15.70;99.90;;;;;;5087749;28;20192;-54
2021/05/15 11:33:11;;;;;;;10.73;2.40;;;15.40;99.90;;;;;;5087662;28;20410;-51
2021/05/15 11:35:55;;;;;;;4.73;1.67;;;14.90;99.90;;;;;;5090768;28;21085;-54
2021/05/15 11:38:23;;;;;;;17.13;3.50;;;14.60;99.90;;;;;;5070105;28;20427;-38
2021/05/15 11:40:48;;;;;;;3.27;2.03;;;14.20;99.90;;;;;;5068017;28;20429;-38
2021/05/15 11:43:23;;;;;;;2.80;2.10;;;14.10;99.90;;;;;;5080978;28;20415;-40
2021/05/15 11:45:52;;;;;;;2.33;1.90;;;14.00;99.90;;;;;;5086654;28;20572;-40
2021/05/15 11:48:23;;;;;;;2.60;2.40;;;13.70;99.90;;;;;;5080939;28;20442;-40
2021/05/15 11:51:11;;;;;;;2.73;2.53;;;13.60;99.90;;;;;;5089760;28;20414;-41
2021/05/15 11:53:42;;;;;;;3.60;2.50;;;13.40;99.90;;;;;;5069322;28;20443;-40
2021/05/15 11:56:15;;;;;;;3.50;3.20;;;13.30;99.90;;;;;;5079710;28;20769;-40
2021/05/15 11:58:59;;;;;;;4.70;3.30;;;13.30;99.90;;;;;;5080911;28;20485;-40
2021/05/15 12:01:29;;;;;;;4.10;3.30;;;13.20;99.90;;;;;;5060852;28;20416;-41
2021/05/15 12:04:17;;;;;;;3.43;3.13;;;13.20;99.90;;;;;;5068758;28;20466;-40
2021/05/15 12:06:43;;;;;;;1.97;1.87;;;13.20;99.90;;;;;;5077834;28;20471;-40
2021/05/15 12:09:18;;;;;;;2.50;2.30;;;13.30;99.90;;;;;;5071325;28;20449;-40
2021/05/15 12:11:45;;;;;;;71.33;8.07;;;13.20;99.90;;;;;;5073295;28;20411;-51
2021/05/15 12:14:12;;;;;;;7.47;2.43;;;13.40;99.90;;;;;;5075229;28;20444;-41
2021/05/15 12:16:39;;;;;;;2.50;1.70;;;13.60;99.90;;;;;;5082948;28;20426;-43
2021/05/15 12:19:06;;;;;;;1.70;1.60;;;14.00;99.90;;;;;;5076634;28;20426;-43
2021/05/15 12:21:32;;;;;;;2.10;1.90;;;14.20;99.90;;;;;;5067369;28;20427;-42
2021/05/15 12:24:06;;;;;;;2.33;2.13;;;14.20;99.90;;;;;;5059948;28;20467;-42
2021/05/15 12:26:32;;;;;;;3.77;2.70;;;14.40;99.90;;;;;;5067266;28;20613;-45
2021/05/15 12:29:02;;;;;;;2.53;2.10;;;14.50;99.90;;;;;;5067058;28;20445;-42
2021/05/15 12:31:31;;;;;;;2.83;2.53;;;14.60;99.90;;;;;;5066785;28;20419;-45
2021/05/15 12:33:59;;;;;;;5.70;3.63;;;14.60;99.90;;;;;;5064838;28;20419;-43
2021/05/15 12:36:31;;;;;;;3.67;3.37;;;14.70;99.90;;;;;;5065882;28;20469;-43
2021/05/15 12:38:58;;;;;;;3.90;2.57;;;14.80;99.90;;;;;;5059132;28;20842;-42
2021/05/15 12:41:39;;;;;;;4.20;3.03;;;14.80;99.90;;;;;;5066167;28;20450;-46
2021/05/15 12:44:12;;;;;;;3.10;2.83;;;14.90;99.90;;;;;;5065937;28;20505;-44
2021/05/15 12:46:43;;;;;;;4.20;3.50;;;15.00;99.90;;;;;;5066852;28;20485;-43
2021/05/15 12:49:14;;;;;;;3.73;3.10;;;15.10;99.90;;;;;;5064970;28;20419;-46